TimeEST,TemperatureF,Dew PointF,Humidity,Sea Level PressureIn,VisibilityMPH,Wind Direction,Wind SpeedMPH,Gust SpeedMPH,PrecipitationIn,Events,Conditions,WindDirDegrees,DateUTC
12:15 AM,3.2,-0.4,85,30.10,10.0,West,13.8,-,N/A,,Clear,270,2013-02-02 05:15:00
12:35 AM,3.2,-0.4,85,30.10,10.0,West,16.1,-,N/A,,Clear,270,2013-02-02 05:35:00
12:55 AM,3.2,-0.4,85,30.10,10.0,West,12.7,-,N/A,,Clear,270,2013-02-02 05:55:00
1:15 AM,5.0,-0.4,78,30.10,10.0,West,13.8,-,N/A,,Clear,270,2013-02-02 06:15:00
1:35 AM,5.0,-0.4,78,30.10,10.0,West,11.5,17.3,N/A,,Clear,270,2013-02-02 06:35:00
1:55 AM,5.0,-0.4,78,30.10,10.0,West,15.0,-,N/A,,Clear,270,2013-02-02 06:55:00
2:15 AM,5.0,-0.4,78,30.10,10.0,West,11.5,-,N/A,,Clear,270,2013-02-02 07:15:00
2:35 AM,5.0,1.4,85,30.09,10.0,West,13.8,-,N/A,,Clear,270,2013-02-02 07:35:00
2:55 AM,5.0,1.4,85,30.09,10.0,West,12.7,-,N/A,,Clear,270,2013-02-02 07:55:00
3:15 AM,6.8,1.4,79,30.09,10.0,West,13.8,-,N/A,,Clear,270,2013-02-02 08:15:00
3:35 AM,6.8,1.4,79,30.09,10.0,West,13.8,-,N/A,,Clear,270,2013-02-02 08:35:00
3:55 AM,5.0,1.4,85,30.09,10.0,West,11.5,-,N/A,,Clear,260,2013-02-02 08:55:00
4:15 AM,5.0,1.4,85,30.09,10.0,West,12.7,-,N/A,,Clear,260,2013-02-02 09:15:00
4:35 AM,5.0,1.4,85,30.09,10.0,West,15.0,-,N/A,,Clear,260,2013-02-02 09:35:00
4:55 AM,6.8,1.4,79,30.09,10.0,West,13.8,-,N/A,,Clear,260,2013-02-02 09:55:00
5:15 AM,6.8,1.4,79,30.08,10.0,West,13.8,-,N/A,,Clear,260,2013-02-02 10:15:00
5:35 AM,6.8,1.4,79,30.08,10.0,West,15.0,21.9,N/A,,Clear,260,2013-02-02 10:35:00
5:55 AM,6.8,1.4,79,30.08,10.0,West,13.8,-,N/A,,Clear,260,2013-02-02 10:55:00
6:15 AM,6.8,3.2,85,30.08,10.0,West,13.8,-,N/A,,Clear,260,2013-02-02 11:15:00
6:35 AM,6.8,3.2,85,30.08,10.0,West,13.8,-,N/A,,Clear,260,2013-02-02 11:35:00
6:55 AM,6.8,3.2,85,30.08,10.0,West,15.0,-,N/A,,Clear,260,2013-02-02 11:55:00
7:15 AM,6.8,3.2,85,30.08,10.0,West,15.0,-,N/A,,Clear,260,2013-02-02 12:15:00
7:35 AM,8.6,3.2,79,30.09,10.0,West,17.3,20.7,N/A,,Clear,260,2013-02-02 12:35:00
7:55 AM,8.6,3.2,79,30.08,10.0,West,17.3,-,N/A,,Clear,270,2013-02-02 12:55:00
8:15 AM,8.6,5.0,85,30.09,10.0,West,15.0,-,N/A,,Clear,260,2013-02-02 13:15:00
8:35 AM,8.6,3.2,79,30.09,10.0,West,15.0,-,N/A,,Clear,260,2013-02-02 13:35:00
8:55 AM,10.4,3.2,73,30.09,10.0,West,16.1,-,N/A,,Clear,260,2013-02-02 13:55:00
9:15 AM,12.2,3.2,67,30.09,10.0,West,13.8,-,N/A,,Mostly Cloudy,260,2013-02-02 14:15:00
9:35 AM,14.0,3.2,62,30.09,10.0,WSW,13.8,-,N/A,,Mostly Cloudy,250,2013-02-02 14:35:00
9:55 AM,14.0,1.4,57,30.09,10.0,West,15.0,-,N/A,,Mostly Cloudy,260,2013-02-02 14:55:00
10:15 AM,15.8,1.4,53,30.07,10.0,WSW,16.1,-,N/A,,Overcast,250,2013-02-02 15:15:00
10:35 AM,15.8,3.2,58,30.07,10.0,West,15.0,21.9,N/A,,Overcast,260,2013-02-02 15:35:00
10:55 AM,15.8,3.2,58,30.07,10.0,WSW,15.0,-,N/A,,Overcast,250,2013-02-02 15:55:00
11:15 AM,17.6,3.2,53,30.05,10.0,WSW,16.1,-,N/A,,Overcast,250,2013-02-02 16:15:00
11:35 AM,19.4,1.4,46,30.03,10.0,WSW,16.1,-,N/A,,Mostly Cloudy,250,2013-02-02 16:35:00
11:55 AM,19.4,1.4,46,30.02,10.0,WSW,17.3,-,N/A,,Overcast,250,2013-02-02 16:55:00
12:15 PM,19.4,1.4,46,30.01,10.0,WSW,16.1,-,N/A,,Overcast,250,2013-02-02 17:15:00
12:35 PM,19.4,1.4,46,30.01,10.0,WSW,16.1,-,N/A,,Overcast,250,2013-02-02 17:35:00
12:55 PM,19.4,3.2,49,30.00,10.0,WSW,18.4,23.0,N/A,,Overcast,250,2013-02-02 17:55:00
1:15 PM,17.6,10.4,73,29.99,4.0,West,19.6,-,N/A,,Haze,260,2013-02-02 18:15:00
1:35 PM,17.6,14.0,86,29.99,3.0,West,15.0,20.7,N/A,Snow,Light Snow,260,2013-02-02 18:35:00
1:55 PM,17.6,15.8,93,29.98,3.0,West,12.7,-,N/A,Snow,Light Snow,260,2013-02-02 18:55:00
2:15 PM,17.6,15.8,93,29.97,1.2,WSW,10.4,-,N/A,Snow,Light Snow,240,2013-02-02 19:15:00
2:35 PM,17.6,15.8,93,29.96,1.0,SW,6.9,-,N/A,Snow,Light Snow,220,2013-02-02 19:35:00
2:55 PM,19.4,17.6,93,29.95,2.5,South,4.6,-,N/A,Snow,Light Snow,190,2013-02-02 19:55:00
3:15 PM,19.4,17.6,93,29.93,2.5,South,8.1,-,N/A,Snow,Light Snow,180,2013-02-02 20:15:00
3:35 PM,19.4,15.8,86,29.92,2.0,South,6.9,-,N/A,Snow,Light Snow,190,2013-02-02 20:35:00
3:55 PM,17.6,17.6,100,29.92,5.0,South,6.9,-,N/A,Snow,Light Snow,180,2013-02-02 20:55:00
4:15 PM,19.4,17.6,93,29.91,3.0,South,4.6,-,N/A,Snow,Light Snow,170,2013-02-02 21:15:00
4:35 PM,19.4,19.4,100,29.91,2.0,SSW,5.8,-,0.01,Snow,Light Snow,210,2013-02-02 21:35:00
4:55 PM,21.2,19.4,93,29.90,3.0,SW,9.2,-,N/A,Snow,Light Snow,220,2013-02-02 21:55:00
5:15 PM,21.2,19.4,93,29.90,4.0,SW,9.2,17.3,N/A,Snow,Light Snow,220,2013-02-02 22:15:00
5:35 PM,21.2,21.2,100,29.90,4.0,SW,10.4,-,N/A,Snow,Light Snow,230,2013-02-02 22:35:00
5:55 PM,21.2,21.2,100,29.89,4.0,SW,12.7,-,N/A,Snow,Light Snow,230,2013-02-02 22:55:00
6:15 PM,21.2,21.2,100,29.89,4.0,SW,12.7,18.4,N/A,Snow,Light Snow,230,2013-02-02 23:15:00
6:35 PM,21.2,21.2,100,29.90,4.0,SW,15.0,-,N/A,Snow,Light Snow,230,2013-02-02 23:35:00
6:55 PM,21.2,21.2,100,29.89,4.0,WSW,15.0,-,N/A,Snow,Light Snow,240,2013-02-02 23:55:00
7:15 PM,23.0,21.2,93,29.89,2.5,WSW,15.0,-,N/A,Snow,Light Snow,240,2013-02-03 00:15:00
7:35 PM,23.0,21.2,93,29.89,0.8,WSW,13.8,-,N/A,Snow,Snow,240,2013-02-03 00:35:00
7:55 PM,23.0,21.2,93,29.88,0.2,WSW,13.8,-,N/A,Snow,Light Snow,250,2013-02-03 00:55:00
8:15 PM,21.2,21.2,100,29.87,0.2,West,13.8,-,N/A,Snow,Snow,260,2013-02-03 01:15:00
8:35 PM,21.2,21.2,100,29.87,0.2,West,13.8,20.7,N/A,Snow,Light Snow,270,2013-02-03 01:35:00
8:55 PM,21.2,21.2,100,29.87,0.2,West,18.4,23.0,N/A,Snow,Light Snow,270,2013-02-03 01:55:00
9:15 PM,21.2,21.2,100,29.86,0.2,West,16.1,24.2,N/A,Snow,Light Snow,270,2013-02-03 02:15:00
9:35 PM,21.2,21.2,100,29.86,1.0,West,17.3,26.5,N/A,Snow,Light Snow,270,2013-02-03 02:35:00
9:55 PM,21.2,21.2,100,29.86,1.2,West,18.4,24.2,N/A,Snow,Light Snow,260,2013-02-03 02:55:00
10:15 PM,21.2,21.2,100,29.86,3.0,West,18.4,23.0,N/A,,Overcast,260,2013-02-03 03:15:00
10:35 PM,21.2,21.2,100,29.86,7.0,West,18.4,25.3,N/A,,Overcast,270,2013-02-03 03:35:00
10:55 PM,21.2,21.2,100,29.85,7.0,West,17.3,27.6,N/A,,Overcast,280,2013-02-03 03:55:00
11:15 PM,21.2,21.2,100,29.85,7.0,West,17.3,25.3,N/A,Snow,Light Snow,270,2013-02-03 04:15:00
11:35 PM,21.2,21.2,100,29.84,5.0,West,17.3,-,N/A,,Overcast,280,2013-02-03 04:35:00
11:55 PM,21.2,21.2,100,29.84,7.0,West,19.6,25.3,N/A,,Overcast,280,2013-02-03 04:55:00